createdAt,value
2023-04-18T00:00:23.794Z,1383.00
2023-04-18T00:01:23.819Z,1387.00
2023-04-18T00:02:23.970Z,1390.00
2023-04-18T00:03:23.982Z,1391.00
2023-04-18T00:04:24.270Z,1389.00
2023-04-18T00:05:23.842Z,1389.00
2023-04-18T00:06:23.850Z,1391.00
2023-04-18T00:07:23.850Z,1393.00
2023-04-18T00:08:23.855Z,1392.00
2023-04-18T00:09:23.879Z,1391.00
2023-04-18T00:10:23.874Z,1390.00
2023-04-18T00:11:23.876Z,1392.00
2023-04-18T00:12:23.877Z,1389.00
2023-04-18T00:13:23.892Z,1386.00
2023-04-18T00:14:23.904Z,1380.00
2023-04-18T00:15:23.926Z,1382.00
2023-04-18T00:16:23.947Z,1382.00
2023-04-18T00:17:23.994Z,1382.00
2023-04-18T00:18:23.960Z,1383.00
2023-04-18T00:19:23.976Z,1388.00
2023-04-18T00:20:23.981Z,1386.00
2023-04-18T00:21:23.982Z,1389.00
2023-04-18T00:22:23.993Z,1388.00
2023-04-18T00:23:24.001Z,1384.00
2023-04-18T00:24:24.017Z,1384.00
2023-04-18T00:25:24.032Z,1384.00
2023-04-18T00:26:24.034Z,1380.00
2023-04-18T00:27:24.043Z,1380.00
2023-04-18T00:28:24.062Z,1383.00
2023-04-18T00:29:24.069Z,1381.00
2023-04-18T00:30:24.080Z,1377.00
2023-04-18T00:31:24.159Z,1376.00
2023-04-18T00:32:24.120Z,1376.00
2023-04-18T00:33:24.107Z,1378.00
2023-04-18T00:34:24.111Z,1379.00
2023-04-18T00:35:24.124Z,1375.00
2023-04-18T00:36:24.134Z,1375.00
2023-04-18T00:37:24.140Z,1375.00
2023-04-18T00:38:24.153Z,1375.00
2023-04-18T00:39:24.153Z,1375.00
2023-04-18T00:40:24.173Z,1373.00
2023-04-18T00:41:24.177Z,1378.00
2023-04-18T00:42:24.188Z,1377.00
2023-04-18T00:43:24.204Z,1379.00
2023-04-18T00:44:24.214Z,1378.00
2023-04-18T00:45:24.226Z,1377.00
2023-04-18T00:46:24.240Z,1378.00
2023-04-18T00:47:24.275Z,1377.00
2023-04-18T00:48:24.254Z,1376.00
2023-04-18T00:49:24.266Z,1373.00
2023-04-18T00:50:24.278Z,1374.00
2023-04-18T00:51:24.284Z,1377.00
2023-04-18T00:52:24.304Z,1377.00
2023-04-18T00:53:24.317Z,1373.00
2023-04-18T00:54:24.328Z,1373.00
2023-04-18T00:55:24.359Z,1374.00
2023-04-18T00:56:24.349Z,1374.00
2023-04-18T00:57:24.359Z,1373.00
2023-04-18T00:58:24.377Z,1371.00
2023-04-18T00:59:24.392Z,1367.00
2023-04-18T01:00:24.436Z,1363.00
2023-04-18T01:01:24.432Z,1362.00
2023-04-18T01:02:24.502Z,1363.00
2023-04-18T01:03:24.580Z,1360.00
2023-04-18T01:04:24.484Z,1361.00
2023-04-18T01:05:24.603Z,1358.00
2023-04-18T01:06:24.464Z,1355.00
2023-04-18T01:07:24.475Z,1355.00
2023-04-18T01:08:24.484Z,1356.00
2023-04-18T01:09:24.499Z,1353.00
2023-04-18T01:10:24.502Z,1350.00
2023-04-18T01:11:24.521Z,1351.00
2023-04-18T01:12:24.533Z,1349.00
2023-04-18T01:13:24.547Z,1347.00
2023-04-18T01:14:24.554Z,1349.00
2023-04-18T01:15:24.560Z,1352.00
2023-04-18T01:16:24.594Z,1348.00
2023-04-18T01:17:24.593Z,1351.00
2023-04-18T01:18:24.605Z,1348.00
2023-04-18T01:19:24.599Z,1348.00
2023-04-18T01:20:24.605Z,1348.00
2023-04-18T01:21:24.616Z,1349.00
2023-04-18T01:22:24.619Z,1344.00
2023-04-18T01:23:24.627Z,1344.00
2023-04-18T01:24:24.703Z,1346.00
2023-04-18T01:25:24.652Z,1349.00
2023-04-18T01:26:24.657Z,1348.00
2023-04-18T01:27:24.663Z,1347.00
2023-04-18T01:28:24.724Z,1352.00
2023-04-18T01:29:24.693Z,1356.00
2023-04-18T01:30:24.696Z,1357.00
2023-04-18T01:31:24.772Z,1353.00
2023-04-18T01:32:24.754Z,1352.00
2023-04-18T01:33:24.730Z,1352.00
2023-04-18T01:34:24.746Z,1350.00
2023-04-18T01:35:24.761Z,1352.00
2023-04-18T01:36:24.754Z,1353.00
2023-04-18T01:37:24.764Z,1355.00
2023-04-18T01:38:24.768Z,1354.00
2023-04-18T01:39:24.775Z,1356.00
2023-04-18T01:40:24.781Z,1353.00
2023-04-18T01:41:24.787Z,1353.00
2023-04-18T01:42:24.794Z,1350.00
2023-04-18T01:43:24.801Z,1353.00
2023-04-18T01:44:24.799Z,1355.00
2023-04-18T01:45:24.812Z,1355.00
2023-04-18T01:46:24.825Z,1353.00
2023-04-18T01:47:24.867Z,1352.00
2023-04-18T01:48:24.804Z,1354.00
2023-04-18T01:49:24.813Z,1352.00
2023-04-18T01:50:24.813Z,1349.00
2023-04-18T01:51:24.813Z,1346.00
2023-04-18T01:52:24.808Z,1344.00
2023-04-18T01:53:25.005Z,1344.00
2023-04-18T01:54:24.818Z,1346.00
2023-04-18T01:55:24.813Z,1347.00
2023-04-18T01:56:24.821Z,1345.00
2023-04-18T01:57:24.811Z,1347.00
2023-04-18T01:58:24.812Z,1345.00
2023-04-18T01:59:24.826Z,1343.00
2023-04-18T02:00:24.853Z,1343.00
2023-04-18T02:01:24.945Z,1341.00
2023-04-18T02:02:24.949Z,1338.00
2023-04-18T02:03:24.928Z,1338.00
2023-04-18T02:04:24.822Z,1339.00
2023-04-18T02:05:24.821Z,1339.00
2023-04-18T02:06:24.816Z,1341.00
2023-04-18T02:07:24.812Z,1340.00
2023-04-18T02:08:24.815Z,1342.00
2023-04-18T02:09:24.844Z,1339.00
2023-04-18T02:10:24.813Z,1342.00
2023-04-18T02:11:24.831Z,1340.00
2023-04-18T02:12:24.816Z,1336.00
2023-04-18T02:13:24.820Z,1335.00
2023-04-18T02:14:24.824Z,1335.00
2023-04-18T02:15:24.821Z,1338.00
2023-04-18T02:16:24.979Z,1339.00
2023-04-18T02:17:24.864Z,1340.00
2023-04-18T02:18:24.866Z,1341.00
2023-04-18T02:19:24.831Z,1341.00
2023-04-18T02:20:24.829Z,1338.00
2023-04-18T02:21:24.829Z,1334.00
2023-04-18T02:22:24.828Z,1332.00
2023-04-18T02:23:24.831Z,1331.00
2023-04-18T02:24:24.823Z,1332.00
2023-04-18T02:25:24.823Z,1331.00
2023-04-18T02:26:24.842Z,1328.00
2023-04-18T02:27:24.835Z,1329.00
2023-04-18T02:28:24.825Z,1330.00
2023-04-18T02:29:24.832Z,1327.00
2023-04-18T02:30:24.823Z,1326.00
2023-04-18T02:31:24.916Z,1326.00
2023-04-18T02:32:24.902Z,1325.00
2023-04-18T02:33:24.823Z,1327.00
2023-04-18T02:34:24.974Z,1324.00
2023-04-18T02:35:24.833Z,1324.00
2023-04-18T02:36:24.826Z,1320.00
2023-04-18T02:37:24.838Z,1317.00
2023-04-18T02:38:24.836Z,1314.00
2023-04-18T02:39:24.843Z,1312.00
2023-04-18T02:40:24.860Z,1312.00
2023-04-18T02:41:24.848Z,1311.00
2023-04-18T02:42:24.847Z,1310.00
2023-04-18T02:43:24.854Z,1311.00
2023-04-18T02:44:24.842Z,1313.00
2023-04-18T02:45:24.832Z,1309.00
2023-04-18T02:46:24.977Z,1305.00
2023-04-18T02:47:24.852Z,1301.00
2023-04-18T02:48:24.918Z,1305.00
2023-04-18T02:49:24.847Z,1305.00
2023-04-18T02:50:24.939Z,1305.00
2023-04-18T02:51:24.841Z,1303.00
2023-04-18T02:52:24.850Z,1302.00
2023-04-18T02:53:24.857Z,1301.00
2023-04-18T02:54:24.931Z,1298.00
2023-04-18T02:55:24.870Z,1296.00
2023-04-18T02:56:24.874Z,1297.00
2023-04-18T02:57:24.869Z,1300.00
2023-04-18T02:58:24.900Z,1295.00
2023-04-18T02:59:24.924Z,1295.00
2023-04-18T03:00:24.901Z,1296.00
2023-04-18T03:01:24.970Z,1294.00
2023-04-18T03:02:25.139Z,1295.00
2023-04-18T03:03:25.068Z,1297.00
2023-04-18T03:04:25.007Z,1295.00
2023-04-18T03:05:24.921Z,1295.00
2023-04-18T03:06:24.904Z,1297.00
2023-04-18T03:07:24.913Z,1298.00
2023-04-18T03:08:24.921Z,1296.00
2023-04-18T03:09:24.929Z,1296.00
2023-04-18T03:10:24.885Z,1298.00
2023-04-18T03:11:24.924Z,1302.00
2023-04-18T03:12:24.929Z,1298.00
2023-04-18T03:13:24.974Z,1297.00
2023-04-18T03:14:24.962Z,1298.00
2023-04-18T03:15:24.906Z,1300.00
2023-04-18T03:16:25.020Z,1295.00
2023-04-18T03:17:24.962Z,1294.00
2023-04-18T03:18:25.004Z,1295.00
2023-04-18T03:19:24.968Z,1291.00
2023-04-18T03:20:24.897Z,1291.00
2023-04-18T03:21:24.867Z,1289.00
2023-04-18T03:22:24.878Z,1291.00
2023-04-18T03:23:24.865Z,1291.00
2023-04-18T03:24:24.873Z,1288.00
2023-04-18T03:25:24.852Z,1288.00
2023-04-18T03:26:24.861Z,1291.00
2023-04-18T03:27:24.849Z,1289.00
2023-04-18T03:28:24.850Z,1290.00
2023-04-18T03:29:24.847Z,1285.00
2023-04-18T03:30:24.837Z,1278.00
2023-04-18T03:31:24.878Z,1278.00
2023-04-18T03:32:24.886Z,1278.00
2023-04-18T03:33:24.834Z,1280.00
2023-04-18T03:34:24.845Z,1280.00
2023-04-18T03:35:24.889Z,1279.00
2023-04-18T03:36:24.833Z,1280.00
2023-04-18T03:37:24.840Z,1279.00
2023-04-18T03:38:24.829Z,1278.00
2023-04-18T03:39:24.830Z,1277.00
2023-04-18T03:40:24.818Z,1276.00
2023-04-18T03:41:24.818Z,1278.00
2023-04-18T03:42:24.810Z,1277.00
2023-04-18T03:43:24.819Z,1275.00
2023-04-18T03:44:24.827Z,1278.00
2023-04-18T03:45:24.821Z,1278.00
2023-04-18T03:46:24.870Z,1277.00
2023-04-18T03:47:24.849Z,1276.00
2023-04-18T03:48:24.816Z,1277.00
2023-04-18T03:49:24.812Z,1277.00
2023-04-18T03:50:24.805Z,1277.00
2023-04-18T03:51:24.819Z,1274.00
2023-04-18T03:52:24.896Z,1269.00
2023-04-18T03:53:24.815Z,1265.00
2023-04-18T03:54:24.828Z,1264.00
2023-04-18T03:55:24.821Z,1264.00
2023-04-18T03:56:24.814Z,1265.00
2023-04-18T03:57:24.827Z,1266.00
2023-04-18T03:58:24.824Z,1265.00
2023-04-18T03:59:24.821Z,1269.00
2023-04-18T04:00:24.814Z,1267.00
2023-04-18T04:01:24.810Z,1268.00
2023-04-18T04:02:24.890Z,1267.00
2023-04-18T04:03:24.827Z,1265.00
2023-04-18T04:04:24.852Z,1261.00
2023-04-18T04:05:24.795Z,1262.00
2023-04-18T04:06:24.778Z,1261.00
2023-04-18T04:07:24.797Z,1259.00
2023-04-18T04:08:26.434Z,1260.00
2023-04-18T04:09:24.742Z,1261.00
2023-04-18T04:10:24.787Z,1262.00
2023-04-18T04:11:24.691Z,1263.00
2023-04-18T04:12:24.674Z,1263.00
2023-04-18T04:13:24.646Z,1259.00
2023-04-18T04:14:24.621Z,1260.00
2023-04-18T04:15:24.668Z,1266.00
2023-04-18T04:16:24.601Z,1264.00
2023-04-18T04:17:24.586Z,1265.00
2023-04-18T04:18:24.524Z,1268.00
2023-04-18T04:19:24.527Z,1268.00
2023-04-18T04:20:24.489Z,1269.00
2023-04-18T04:21:24.464Z,1265.00
2023-04-18T04:22:24.464Z,1265.00
2023-04-18T04:23:24.400Z,1259.00
2023-04-18T04:24:24.406Z,1259.00
2023-04-18T04:25:24.481Z,1255.00
2023-04-18T04:26:24.347Z,1252.00
2023-04-18T04:27:24.320Z,1250.00
2023-04-18T04:28:24.305Z,1252.00
2023-04-18T04:29:24.288Z,1253.00
2023-04-18T04:30:24.262Z,1256.00
2023-04-18T04:31:24.276Z,1256.00
2023-04-18T04:32:24.237Z,1257.00
2023-04-18T04:33:24.192Z,1259.00
2023-04-18T04:34:24.164Z,1256.00
2023-04-18T04:35:24.163Z,1255.00
2023-04-18T04:36:24.121Z,1252.00
2023-04-18T04:37:24.103Z,1247.00
2023-04-18T04:38:24.073Z,1243.00
2023-04-18T04:39:24.049Z,1246.00
2023-04-18T04:40:24.043Z,1245.00
2023-04-18T04:41:24.010Z,1247.00
2023-04-18T04:42:23.983Z,1245.00
2023-04-18T04:43:23.962Z,1243.00
2023-04-18T04:44:23.943Z,1244.00
2023-04-18T04:45:23.929Z,1246.00
2023-04-18T04:46:23.979Z,1245.00
2023-04-18T04:47:23.875Z,1245.00
2023-04-18T04:48:23.842Z,1244.00
2023-04-18T04:49:23.826Z,1242.00
2023-04-18T04:50:23.810Z,1242.00
2023-04-18T04:51:23.787Z,1242.00
2023-04-18T04:52:23.762Z,1240.00
2023-04-18T04:53:23.720Z,1241.00
2023-04-18T04:54:23.716Z,1242.00
2023-04-18T04:55:23.684Z,1243.00
2023-04-18T04:56:23.660Z,1240.00
2023-04-18T04:57:23.641Z,1238.00
2023-04-18T04:58:23.619Z,1239.00
2023-04-18T04:59:23.594Z,1239.00
2023-04-18T05:00:23.572Z,1241.00
2023-04-18T05:01:23.572Z,1241.00
2023-04-18T05:02:23.676Z,1243.00
2023-04-18T05:03:23.600Z,1241.00
2023-04-18T05:04:23.609Z,1240.00
2023-04-18T05:05:23.443Z,1237.00
2023-04-18T05:06:23.416Z,1236.00
2023-04-18T05:07:23.394Z,1233.00
2023-04-18T05:08:23.358Z,1233.00
2023-04-18T05:09:23.341Z,1231.00
2023-04-18T05:10:23.392Z,1232.00
2023-04-18T05:11:23.277Z,1233.00
2023-04-18T05:12:23.247Z,1232.00
2023-04-18T05:13:23.219Z,1234.00
2023-04-18T05:14:23.186Z,1235.00
2023-04-18T05:15:23.161Z,1234.00
2023-04-18T05:16:23.178Z,1235.00
2023-04-18T05:17:23.126Z,1232.00
2023-04-18T05:18:23.075Z,1233.00
2023-04-18T05:19:23.036Z,1230.00
2023-04-18T05:20:23.016Z,1233.00
2023-04-18T05:21:22.988Z,1231.00
2023-04-18T05:22:22.948Z,1234.00
2023-04-18T05:23:22.934Z,1233.00
2023-04-18T05:24:23.316Z,1237.00
2023-04-18T05:25:23.872Z,1240.00
2023-04-18T05:26:22.837Z,1351.00
2023-04-18T05:27:22.788Z,1394.00
2023-04-18T05:28:22.768Z,1403.00
2023-04-18T05:29:22.716Z,1501.00
2023-04-18T05:30:22.701Z,1531.00
2023-04-18T05:31:22.706Z,1552.00
2023-04-18T05:32:22.707Z,1940.00
2023-04-18T05:33:22.702Z,1768.00
2023-04-18T05:34:22.730Z,1732.00
2023-04-18T05:35:22.762Z,1721.00
2023-04-18T05:36:22.782Z,1740.00
2023-04-18T05:37:22.801Z,1854.00
2023-04-18T05:38:22.810Z,1869.00
2023-04-18T05:39:22.817Z,1881.00
2023-04-18T05:40:22.832Z,1884.00
2023-04-18T05:41:22.830Z,1894.00
2023-04-18T05:42:22.844Z,1902.00
2023-04-18T05:43:22.822Z,1965.00
2023-04-18T05:44:22.810Z,1975.00
2023-04-18T05:45:22.792Z,1973.00
2023-04-18T05:46:22.811Z,1975.00
2023-04-18T05:47:22.838Z,1976.00
2023-04-18T05:48:22.764Z,1980.00
2023-04-18T05:49:22.778Z,2089.00
2023-04-18T05:50:22.721Z,2070.00
2023-04-18T05:51:23.681Z,2229.00
2023-04-18T05:52:22.635Z,2139.00
2023-04-18T05:53:22.614Z,2134.00
2023-04-18T05:54:22.549Z,2129.00
2023-04-18T05:55:23.228Z,2146.00
2023-04-18T05:56:22.492Z,2153.00
2023-04-18T05:57:22.429Z,2179.00
2023-04-18T05:58:22.381Z,2242.00
2023-04-18T05:59:22.336Z,2305.00
2023-04-18T06:00:22.324Z,2338.00
2023-04-18T06:01:22.245Z,2372.00
2023-04-18T06:02:22.361Z,2546.00
2023-04-18T06:03:22.386Z,2533.00
2023-04-18T06:04:22.227Z,2523.00
2023-04-18T06:05:22.176Z,2542.00
2023-04-18T06:06:22.013Z,2579.00
2023-04-18T06:07:21.952Z,2622.00
2023-04-18T06:08:21.962Z,2619.00
2023-04-18T06:09:21.980Z,2645.00
2023-04-18T06:10:22.005Z,2662.00
2023-04-18T06:11:22.016Z,2709.00
2023-04-18T06:12:22.049Z,2717.00
2023-04-18T06:13:22.056Z,2813.00
2023-04-18T06:14:22.075Z,2817.00
2023-04-18T06:15:23.830Z,2818.00
2023-04-18T06:16:22.122Z,2857.00
2023-04-18T06:17:22.149Z,2870.00
2023-04-18T06:18:22.121Z,2863.00
2023-04-18T06:19:22.135Z,2849.00
2023-04-18T06:20:22.154Z,2863.00
2023-04-18T06:21:22.247Z,2875.00
2023-04-18T06:22:22.211Z,2871.00
2023-04-18T06:23:22.198Z,2862.00
2023-04-18T06:24:22.205Z,2850.00
2023-04-18T06:25:22.816Z,2841.00
2023-04-18T06:26:22.190Z,2836.00
2023-04-18T06:27:31.203Z,2831.00
2023-04-18T06:28:23.132Z,2834.00
2023-04-18T06:29:23.077Z,2833.00
2023-04-18T06:30:22.245Z,2835.00
2023-04-18T06:31:21.992Z,2837.00
2023-04-18T06:32:22.839Z,2835.00
2023-04-18T06:33:21.896Z,2832.00
2023-04-18T06:34:21.855Z,2825.00
2023-04-18T06:35:21.808Z,2828.00
2023-04-18T06:36:21.767Z,2824.00
2023-04-18T06:37:21.709Z,2824.00
2023-04-18T06:38:21.671Z,2820.00
2023-04-18T06:39:21.626Z,2820.00
2023-04-18T06:40:21.576Z,2818.00
2023-04-18T06:41:21.524Z,2820.00
2023-04-18T06:42:22.373Z,2819.00
2023-04-18T06:43:21.444Z,2818.00
2023-04-18T06:44:21.393Z,2813.00
2023-04-18T06:45:21.353Z,2813.00
2023-04-18T06:46:21.421Z,2806.00
2023-04-18T06:47:21.279Z,2803.00
2023-04-18T06:48:21.232Z,2798.00
2023-04-18T06:49:26.255Z,2792.00
2023-04-18T06:50:22.151Z,2787.00
2023-04-18T06:51:21.066Z,2784.00
2023-04-18T06:52:21.036Z,2784.00
2023-04-18T06:53:20.981Z,2781.00
2023-04-18T06:54:20.938Z,2778.00
2023-04-18T06:55:20.895Z,2778.00
2023-04-18T06:56:20.855Z,2776.00
2023-04-18T06:57:20.806Z,2771.00
2023-04-18T06:58:20.759Z,2772.00
2023-04-18T06:59:20.697Z,2767.00
2023-04-18T07:00:20.667Z,2763.00
2023-04-18T07:01:20.648Z,2756.00
2023-04-18T07:02:20.665Z,2747.00
2023-04-18T07:03:20.771Z,2748.00
2023-04-18T07:04:20.616Z,2742.00
2023-04-18T07:05:20.532Z,2742.00
2023-04-18T07:06:20.509Z,2741.00
2023-04-18T07:07:20.505Z,2741.00
2023-04-18T07:08:20.514Z,2740.00
2023-04-18T07:09:20.506Z,2732.00
2023-04-18T07:10:20.578Z,2735.00
2023-04-18T07:11:20.514Z,2726.00
2023-04-18T07:12:20.516Z,2714.00
2023-04-18T07:13:20.532Z,2715.00
2023-04-18T07:14:20.520Z,2711.00
2023-04-18T07:15:20.533Z,2712.00
2023-04-18T07:16:20.613Z,2715.00
2023-04-18T07:17:21.430Z,2707.00
2023-04-18T07:18:30.180Z,2689.00
2023-04-18T07:19:21.483Z,2690.00
2023-04-18T07:20:20.446Z,2705.00
2023-04-18T07:21:20.417Z,2718.00
2023-04-18T07:22:20.372Z,2841.00
2023-04-18T07:23:21.252Z,2942.00
2023-04-18T07:24:20.257Z,2962.00
2023-04-18T07:25:20.218Z,2988.00
2023-04-18T07:26:20.166Z,3062.00
2023-04-18T07:27:20.115Z,3094.00
2023-04-18T07:28:20.060Z,3114.00
2023-04-18T07:29:20.025Z,3139.00
2023-04-18T07:30:20.765Z,3150.00
2023-04-18T07:31:19.944Z,3180.00
2023-04-18T07:32:19.892Z,3209.00
2023-04-18T07:33:19.816Z,3238.00
2023-04-18T07:34:19.778Z,3297.00
2023-04-18T07:35:19.822Z,3371.00
2023-04-18T07:36:19.654Z,3406.00
2023-04-18T07:37:19.614Z,3412.00
2023-04-18T07:38:19.641Z,3419.00
2023-04-18T07:39:19.658Z,3435.00
2023-04-18T07:40:20.332Z,3491.00
2023-04-18T07:41:20.808Z,3504.00
2023-04-18T07:42:19.828Z,3533.00
2023-04-18T07:43:20.791Z,3577.00
2023-04-18T07:44:20.335Z,3605.00
2023-04-18T07:45:19.819Z,3642.00
2023-04-18T07:46:19.872Z,3712.00
2023-04-18T07:47:22.427Z,3751.00
2023-04-18T07:48:19.783Z,3766.00
2023-04-18T07:49:19.688Z,3777.00
2023-04-18T07:50:19.635Z,3797.00
2023-04-18T07:51:19.591Z,3819.00
2023-04-18T07:52:19.520Z,3884.00
2023-04-18T07:53:19.486Z,3945.00
2023-04-18T07:54:19.415Z,3985.00
2023-04-18T07:55:19.370Z,4012.00
2023-04-18T07:56:19.309Z,4020.00
2023-04-18T07:57:19.254Z,4044.00
2023-04-18T07:58:19.204Z,4087.00
2023-04-18T07:59:19.381Z,4111.00
2023-04-18T08:00:19.095Z,4130.00
2023-04-18T08:01:19.044Z,4182.00
2023-04-18T08:02:19.053Z,4283.00
2023-04-18T08:03:19.211Z,4290.00
2023-04-18T08:04:19.024Z,4309.00
2023-04-18T08:05:18.850Z,4324.00
2023-04-18T08:06:18.785Z,4350.00
2023-04-18T08:07:18.701Z,4371.00
2023-04-18T08:08:18.649Z,4393.00
2023-04-18T08:09:18.593Z,4367.00
2023-04-18T08:10:18.549Z,4452.00
2023-04-18T08:11:18.490Z,4406.00
2023-04-18T08:12:18.425Z,4402.00
2023-04-18T08:13:18.382Z,4412.00
2023-04-18T08:14:18.325Z,4415.00
2023-04-18T08:15:18.265Z,4419.00
2023-04-18T08:16:18.237Z,4428.00
2023-04-18T08:17:18.181Z,4436.00
2023-04-18T08:18:18.133Z,4533.00
2023-04-18T08:19:18.034Z,4166.00
2023-04-18T08:20:18.058Z,3044.00
2023-04-18T08:21:17.942Z,2481.00
2023-04-18T08:22:17.887Z,2296.00
2023-04-18T08:23:17.901Z,2094.00
2023-04-18T08:24:17.781Z,2109.00
2023-04-18T08:25:17.745Z,2103.00
2023-04-18T08:26:17.687Z,2117.00
2023-04-18T08:27:17.641Z,2273.00
2023-04-18T08:28:17.564Z,2272.00
2023-04-18T08:29:17.517Z,2446.00
2023-04-18T08:30:17.469Z,2469.00
2023-04-18T08:31:17.441Z,2481.00
2023-04-18T08:32:17.368Z,2577.00
2023-04-18T08:33:17.305Z,2604.00
2023-04-18T08:34:17.262Z,2620.00
2023-04-18T08:35:17.203Z,2767.00
2023-04-18T08:36:17.149Z,2694.00
2023-04-18T08:37:17.086Z,2675.00
2023-04-18T08:38:17.031Z,2675.00
2023-04-18T08:39:17.049Z,2683.00
2023-04-18T08:40:16.929Z,2790.00
2023-04-18T08:41:16.862Z,2882.00
2023-04-18T08:42:16.794Z,2858.00
2023-04-18T08:43:16.750Z,2899.00
2023-04-18T08:44:16.686Z,3045.00
2023-04-18T08:45:16.634Z,3046.00
2023-04-18T08:46:16.611Z,3009.00
2023-04-18T08:47:16.532Z,2992.00
2023-04-18T08:48:16.470Z,3003.00
2023-04-18T08:49:16.732Z,3067.00
2023-04-18T08:50:16.348Z,3077.00
2023-04-18T08:51:16.295Z,3098.00
2023-04-18T08:52:16.246Z,3132.00
2023-04-18T08:53:16.178Z,3169.00
2023-04-18T08:54:16.120Z,3205.00
2023-04-18T08:55:16.108Z,3221.00
2023-04-18T08:56:16.009Z,3241.00
2023-04-18T08:57:15.934Z,3279.00
2023-04-18T08:58:15.876Z,3307.00
2023-04-18T08:59:16.085Z,3410.00
2023-04-18T09:00:15.769Z,3434.00
2023-04-18T09:01:15.729Z,3442.00
2023-04-18T09:02:15.706Z,3472.00
2023-04-18T09:03:15.659Z,3508.00
2023-04-18T09:04:15.553Z,3551.00
2023-04-18T09:05:15.465Z,3802.00
2023-04-18T09:06:15.401Z,3789.00
2023-04-18T09:07:15.330Z,3742.00
2023-04-18T09:08:15.280Z,3713.00
2023-04-18T09:09:15.444Z,3737.00
2023-04-18T09:10:15.152Z,3735.00
2023-04-18T09:11:15.236Z,3763.00
2023-04-18T09:12:15.026Z,3807.00
2023-04-18T09:13:14.975Z,3815.00
2023-04-18T09:14:15.036Z,3955.00
2023-04-18T09:15:14.838Z,3964.00
2023-04-18T09:16:15.403Z,3903.00
2023-04-18T09:17:14.709Z,3239.00
2023-04-18T09:18:14.653Z,2478.00
2023-04-18T09:19:15.054Z,2306.00
2023-04-18T09:20:14.579Z,2100.00
2023-04-18T09:21:14.504Z,2032.00
2023-04-18T09:22:14.447Z,1787.00
2023-04-18T09:23:14.469Z,1829.00
2023-04-18T09:24:14.638Z,2096.00
2023-04-18T09:25:14.288Z,2122.00
2023-04-18T09:26:14.251Z,2248.00
2023-04-18T09:27:14.264Z,2261.00
2023-04-18T09:28:14.180Z,2262.00
2023-04-18T09:29:14.277Z,2321.00
2023-04-18T09:30:14.132Z,2334.00
2023-04-18T09:31:14.128Z,2440.00
2023-04-18T09:32:14.040Z,2465.00
2023-04-18T09:33:13.994Z,2471.00
2023-04-18T09:34:14.130Z,2487.00
2023-04-18T09:35:13.914Z,2558.00
2023-04-18T09:36:13.861Z,2609.00
2023-04-18T09:37:13.991Z,2652.00
2023-04-18T09:38:13.767Z,2661.00
2023-04-18T09:39:13.881Z,2667.00
2023-04-18T09:40:13.672Z,2747.00
2023-04-18T09:41:13.645Z,2752.00
2023-04-18T09:42:13.580Z,2772.00
2023-04-18T09:43:13.567Z,2779.00
2023-04-18T09:44:15.264Z,2802.00
2023-04-18T09:45:13.419Z,2885.00
2023-04-18T09:46:13.438Z,2919.00
2023-04-18T09:47:13.338Z,2949.00
2023-04-18T09:48:13.270Z,2962.00
2023-04-18T09:49:13.415Z,2990.00
2023-04-18T09:50:13.162Z,3077.00
2023-04-18T09:51:13.122Z,3123.00
2023-04-18T09:52:13.044Z,3129.00
2023-04-18T09:53:13.031Z,3204.00
2023-04-18T09:54:13.235Z,3228.00
2023-04-18T09:55:12.951Z,3234.00
2023-04-18T09:56:13.028Z,3244.00
2023-04-18T09:57:12.923Z,3270.00
2023-04-18T09:58:12.864Z,3276.00
2023-04-18T09:59:13.325Z,3294.00
2023-04-18T10:00:12.838Z,3321.00
2023-04-18T10:01:12.860Z,3348.00
2023-04-18T10:02:12.846Z,3405.00
2023-04-18T10:03:12.957Z,3453.00
2023-04-18T10:04:13.005Z,3501.00
2023-04-18T10:05:12.866Z,3616.00
2023-04-18T10:06:12.831Z,3611.00
2023-04-18T10:07:12.776Z,3615.00
2023-04-18T10:08:12.810Z,3629.00
2023-04-18T10:09:13.165Z,3663.00
2023-04-18T10:10:12.852Z,3796.00
2023-04-18T10:11:12.846Z,3772.00
2023-04-18T10:12:12.871Z,3742.00
2023-04-18T10:13:12.793Z,3765.00
2023-04-18T10:14:13.130Z,3797.00
2023-04-18T10:15:12.950Z,3321.00
2023-04-18T10:16:12.845Z,3189.00
2023-04-18T10:17:12.753Z,2527.00
2023-04-18T10:18:12.741Z,2517.00
2023-04-18T10:19:12.846Z,2620.00
2023-04-18T10:20:12.601Z,1976.00
2023-04-18T10:21:12.555Z,2361.00
2023-04-18T10:22:12.503Z,2513.00
2023-04-18T10:23:13.325Z,2277.00
2023-04-18T10:24:12.576Z,2277.00
2023-04-18T10:25:12.360Z,2075.00
2023-04-18T10:26:12.319Z,1654.00
2023-04-18T10:27:12.266Z,1619.00
2023-04-18T10:28:12.205Z,1970.00
2023-04-18T10:29:12.433Z,1850.00
2023-04-18T10:30:12.124Z,1900.00
2023-04-18T10:31:12.219Z,1694.00
2023-04-18T10:32:12.821Z,1865.00
2023-04-18T10:33:18.512Z,1760.00
2023-04-18T10:34:12.965Z,1668.00
2023-04-18T10:35:11.914Z,1551.00
2023-04-18T10:36:11.860Z,1932.00
2023-04-18T10:37:11.796Z,1916.00
2023-04-18T10:38:11.751Z,1942.00
2023-04-18T10:39:11.696Z,2100.00
2023-04-18T10:40:11.622Z,2085.00
2023-04-18T10:41:11.571Z,2066.00
2023-04-18T10:42:11.541Z,2081.00
2023-04-18T10:43:11.450Z,2103.00
2023-04-18T10:44:11.452Z,2143.00
2023-04-18T10:45:11.329Z,2172.00
2023-04-18T10:46:23.942Z,2199.00
2023-04-18T10:47:12.319Z,2214.00
2023-04-18T10:48:11.193Z,2369.00
2023-04-18T10:49:11.281Z,2389.00
2023-04-18T10:50:11.053Z,2386.00
2023-04-18T10:51:11.004Z,2383.00
2023-04-18T10:52:12.326Z,2379.00
2023-04-18T10:53:10.908Z,2402.00
2023-04-18T10:54:10.971Z,2418.00
2023-04-18T10:55:10.954Z,2459.00
2023-04-18T10:56:10.944Z,2500.00
2023-04-18T10:57:10.938Z,2533.00
2023-04-18T10:58:10.951Z,2668.00
2023-04-18T10:59:10.953Z,2625.00
2023-04-18T11:00:10.958Z,2626.00
2023-04-18T11:01:11.011Z,2632.00
2023-04-18T11:02:12.849Z,2749.00
2023-04-18T11:03:11.280Z,2801.00
2023-04-18T11:04:11.122Z,2742.00
2023-04-18T11:05:10.999Z,2732.00
2023-04-18T11:06:11.019Z,2705.00
2023-04-18T11:07:11.037Z,2697.00
2023-04-18T11:08:11.009Z,2696.00
2023-04-18T11:09:11.006Z,2693.00
2023-04-18T11:10:10.970Z,2689.00
2023-04-18T11:11:10.939Z,2684.00
2023-04-18T11:12:10.917Z,2680.00
2023-04-18T11:13:10.866Z,2680.00
2023-04-18T11:14:10.845Z,2675.00
2023-04-18T11:15:10.763Z,2674.00
2023-04-18T11:16:10.761Z,2675.00
2023-04-18T11:17:11.341Z,2672.00
2023-04-18T11:18:10.672Z,2673.00
2023-04-18T11:19:10.586Z,2674.00
2023-04-18T11:20:10.536Z,2675.00
2023-04-18T11:21:10.488Z,2674.00
2023-04-18T11:22:10.451Z,2674.00
2023-04-18T11:23:10.400Z,2677.00
2023-04-18T11:24:10.367Z,2673.00
2023-04-18T11:25:10.334Z,2666.00
2023-04-18T11:26:10.295Z,2657.00
2023-04-18T11:27:10.256Z,2659.00
2023-04-18T11:28:10.244Z,2657.00
2023-04-18T11:29:10.194Z,2655.00
2023-04-18T11:30:10.182Z,2651.00
2023-04-18T11:31:10.144Z,2650.00
2023-04-18T11:32:10.196Z,2655.00
2023-04-18T11:33:10.113Z,2657.00
2023-04-18T11:34:10.086Z,2657.00
2023-04-18T11:35:10.104Z,2656.00
2023-04-18T11:36:10.037Z,2650.00
2023-04-18T11:37:10.012Z,2645.00
2023-04-18T11:38:09.981Z,2641.00
2023-04-18T11:39:09.959Z,2644.00
2023-04-18T11:40:09.932Z,2641.00
2023-04-18T11:41:09.903Z,2642.00
2023-04-18T11:42:09.887Z,2643.00
2023-04-18T11:43:09.881Z,2638.00
2023-04-18T11:44:09.875Z,2630.00
2023-04-18T11:45:09.851Z,2625.00
2023-04-18T11:46:09.879Z,2627.00
2023-04-18T11:47:09.829Z,2633.00
2023-04-18T11:48:09.813Z,2630.00
2023-04-18T11:49:09.772Z,2627.00
2023-04-18T11:50:09.766Z,2623.00
2023-04-18T11:51:09.760Z,2620.00
2023-04-18T11:52:09.716Z,2607.00
2023-04-18T11:53:09.712Z,2600.00
2023-04-18T11:54:09.670Z,2595.00
2023-04-18T11:55:09.634Z,2594.00
2023-04-18T11:56:09.615Z,2595.00
2023-04-18T11:57:09.588Z,2596.00
2023-04-18T11:58:09.546Z,2598.00
2023-04-18T11:59:09.520Z,2602.00
2023-04-18T12:00:09.519Z,2593.00
2023-04-18T12:01:09.463Z,2594.00
2023-04-18T12:02:16.406Z,2591.00
2023-04-18T12:03:13.399Z,2592.00
2023-04-18T12:04:09.549Z,2587.00
2023-04-18T12:05:09.592Z,2593.00